Time;durP1;ratioP1;P1;durP2;ratioP2;P2;SDS_P1;SDS_P2;PMS_P1;PMS_P2;Temp;Humidity;BMP_temperature;BMP_pressure;BME280_temperature;BME280_humidity;BME280_pressure;Samples;Min_cycle;Max_cycle;Signal;HPM_P1;HPM_P2
2022/04/18 00:02:13;;;;;;;3.43;2.07;;;5.80;93.30;;;6.68;77.93;98519.94;4957639;28;20462;-74
2022/04/18 00:04:43;;;;;;;1.93;1.73;;;5.70;93.40;;;6.74;78.59;98514.97;4958751;28;20482;-74
2022/04/18 00:07:13;;;;;;;2.60;1.70;;;5.70;93.50;;;6.75;77.43;98513.19;4961543;28;20524;-74
2022/04/18 00:09:42;;;;;;;5.27;2.20;;;5.80;93.10;;;6.58;77.79;98514.84;4961374;28;20454;-74
2022/04/18 00:12:11;;;;;;;1.70;1.50;;;5.70;93.20;;;6.50;78.23;98506.97;4957071;28;20525;-74
2022/04/18 00:14:41;;;;;;;4.90;1.93;;;5.70;93.40;;;6.45;78.44;98506.63;4959499;28;20527;-74
2022/04/18 00:17:14;;;;;;;3.13;1.60;;;5.70;93.20;;;6.36;79.17;98500.53;4960366;28;20458;-74
2022/04/18 00:19:44;;;;;;;1.67;1.57;;;5.50;93.40;;;6.35;79.54;98498.88;4958707;28;21009;-74
2022/04/18 00:22:13;;;;;;;6.30;1.50;;;5.50;93.50;;;6.24;80.05;98500.91;4958947;28;20460;-74
2022/04/18 00:24:44;;;;;;;3.50;1.70;;;5.40;93.50;;;6.29;80.72;98496.06;4961609;28;20859;-74
2022/04/18 00:27:13;;;;;;;2.77;1.70;;;5.40;93.80;;;6.31;80.45;98488.97;4960111;28;20449;-74
2022/04/18 00:29:42;;;;;;;2.83;2.00;;;5.40;93.80;;;6.21;81.03;98483.03;4958432;28;20471;-74
2022/04/18 00:32:14;;;;;;;2.90;1.87;;;5.30;93.80;;;6.17;81.03;98479.94;4958886;28;20495;-73
2022/04/18 00:34:44;;;;;;;3.10;2.03;;;5.30;94.10;;;6.16;81.39;98480.88;4960258;28;20556;-74
2022/04/18 00:37:19;;;;;;;4.03;1.70;;;5.40;93.80;;;6.11;81.67;98479.69;4958764;28;20472;-74
2022/04/18 00:39:49;;;;;;;1.93;1.67;;;5.30;93.80;;;6.07;81.96;98474.78;4959418;28;20523;-74
2022/04/18 00:42:19;;;;;;;2.60;1.80;;;5.20;94.10;;;6.03;81.41;98475.25;4960323;28;20473;-74
2022/04/18 00:44:49;;;;;;;2.87;1.93;;;5.20;93.70;;;6.05;82.23;98473.31;4957684;28;21212;-74
2022/04/18 00:47:21;;;;;;;2.13;1.90;;;5.10;94.30;;;6.04;82.10;98469.06;4961144;28;20559;-73
2022/04/18 00:49:51;;;;;;;2.20;1.93;;;5.20;94.00;;;6.01;81.96;98474.56;4957883;28;20462;-74
2022/04/18 00:52:20;;;;;;;3.00;1.80;;;5.20;94.00;;;6.04;82.55;98474.25;4958472;28;20464;-74
2022/04/18 00:54:53;;;;;;;6.03;2.27;;;5.10;94.10;;;5.94;82.59;98471.75;4957770;28;20524;-74
2022/04/18 00:57:25;;;;;;;2.20;1.60;;;5.00;94.40;;;5.85;83.17;98477.78;4958463;28;20872;-74
2022/04/18 00:59:54;;;;;;;2.13;1.80;;;5.10;93.90;;;5.75;83.66;98471.03;4958181;28;20517;-74
2022/04/18 01:02:24;;;;;;;1.97;1.60;;;5.00;94.30;;;5.84;84.02;98467.53;4956037;28;20477;-73
2022/04/18 01:04:54;;;;;;;2.17;1.90;;;5.00;94.30;;;5.75;83.72;98464.06;4959689;28;20460;-74
2022/04/18 01:07:25;;;;;;;2.17;1.97;;;5.00;94.10;;;5.78;83.89;98468.13;4958301;28;20472;-74
2022/04/18 01:09:56;;;;;;;4.30;2.00;;;4.90;94.40;;;5.79;83.91;98469.78;4960262;28;20960;-74
2022/04/18 01:12:25;;;;;;;1.93;1.60;;;5.00;94.40;;;5.70;84.37;98462.84;4958120;28;20482;-74
2022/04/18 01:14:55;;;;;;;2.20;1.73;;;4.90;94.40;;;5.70;84.94;98465.44;4961394;28;20524;-73
2022/04/18 01:17:27;;;;;;;3.83;1.80;;;4.80;94.70;;;5.68;84.68;98462.19;4962687;28;20476;-74
2022/04/18 01:19:57;;;;;;;2.60;1.70;;;4.80;94.70;;;5.65;85.11;98457.31;4962981;28;20526;-74
2022/04/18 01:22:29;;;;;;;3.30;1.97;;;4.80;94.40;;;5.66;84.98;98453.75;4963309;28;20465;-73
2022/04/18 01:30:32;;;;;;;2.87;1.80;;;4.80;94.70;;;5.59;85.77;98454.31;4962173;28;20968;-74
2022/04/18 01:33:06;;;;;;;2.40;1.77;;;4.70;94.80;;;5.55;85.48;98450.38;4960748;28;20487;-74
2022/04/18 01:35:36;;;;;;;2.53;2.33;;;4.70;94.60;;;5.50;85.11;98451.78;4973925;28;20483;-74
2022/04/18 01:38:09;;;;;;;3.67;1.50;;;4.70;94.40;;;5.45;85.89;98452.22;4961603;28;20461;-74
2022/04/18 01:40:38;;;;;;;1.87;1.50;;;4.60;95.00;;;5.48;85.81;98446.72;4962612;28;20502;-74
2022/04/18 01:43:08;;;;;;;4.17;2.07;;;4.60;95.00;;;5.42;85.58;98452.50;4962265;28;20461;-74
2022/04/18 01:45:37;;;;;;;2.10;1.70;;;4.60;94.60;;;5.34;86.27;98452.44;4962068;28;20498;-74
2022/04/18 01:48:10;;;;;;;2.20;1.60;;;4.60;94.70;;;5.29;86.58;98449.44;4964003;28;20534;-73
2022/04/18 01:50:39;;;;;;;2.20;1.70;;;4.50;94.70;;;5.22;87.35;98450.97;4962583;28;20960;-74
2022/04/18 01:53:12;;;;;;;1.93;1.73;;;4.50;94.90;;;5.16;87.74;98446.38;4960296;28;20489;-73
2022/04/18 01:55:41;;;;;;;4.73;1.80;;;4.40;94.90;;;5.15;87.71;98449.91;4963125;28;21026;-74
2022/04/18 01:58:11;;;;;;;2.00;1.53;;;4.40;95.10;;;5.08;88.25;98451.44;4959950;28;21195;-73
2022/04/18 02:00:42;;;;;;;2.33;1.90;;;4.20;95.20;;;5.04;88.19;98447.50;4961059;28;20468;-74
2022/04/18 02:03:11;;;;;;;5.53;1.90;;;4.30;95.10;;;5.03;88.60;98451.06;4961822;28;20925;-73
2022/04/18 02:05:43;;;;;;;3.10;1.97;;;4.30;95.20;;;5.00;89.03;98446.13;4960684;28;20468;-73
2022/04/18 02:08:15;;;;;;;2.60;1.90;;;4.20;95.30;;;4.92;89.15;98448.63;4960133;28;20539;-74
2022/04/18 02:10:45;;;;;;;3.50;2.10;;;4.10;95.30;;;4.92;89.52;98444.28;4960882;28;20468;-73
2022/04/18 02:13:14;;;;;;;2.30;1.50;;;4.20;95.20;;;4.91;89.39;98445.22;4959424;28;20468;-74
2022/04/18 02:15:43;;;;;;;3.53;2.00;;;4.20;95.30;;;4.90;89.49;98445.34;4961169;28;20479;-74
2022/04/18 02:18:14;;;;;;;3.20;1.53;;;4.20;95.10;;;4.90;89.49;98450.53;4958157;28;21073;-73
2022/04/18 02:20:44;;;;;;;1.57;1.47;;;4.20;95.20;;;4.78;89.82;98442.13;4961631;28;20818;-74
2022/04/18 02:23:15;;;;;;;2.27;1.87;;;4.10;95.30;;;4.77;90.03;98440.50;4962532;28;20938;-74
2022/04/18 02:25:44;;;;;;;1.63;1.50;;;4.00;95.60;;;4.77;90.71;98437.09;4962465;28;20476;-73
2022/04/18 02:28:14;;;;;;;2.00;1.60;;;4.00;95.60;;;4.78;90.34;98447.31;4962451;28;20470;-73
2022/04/18 02:30:44;;;;;;;2.00;1.43;;;4.00;95.60;;;4.69;90.73;98442.13;4963136;28;20460;-74
2022/04/18 02:33:15;;;;;;;3.30;2.10;;;4.00;95.30;;;4.72;91.05;98434.13;4959885;28;20465;-75
2022/04/18 02:35:44;;;;;;;3.03;1.77;;;4.00;95.60;;;4.71;91.12;98432.47;4961030;28;20474;-74
2022/04/18 02:38:16;;;;;;;6.57;1.93;;;3.90;95.70;;;4.70;91.51;98430.84;4961571;28;20460;-73
2022/04/18 02:40:46;;;;;;;4.73;1.70;;;3.80;95.90;;;4.77;91.36;98424.94;4960516;28;20543;-74
2022/04/18 02:43:15;;;;;;;1.90;1.60;;;3.80;96.00;;;4.79;90.70;98427.41;4959279;28;20562;-73
2022/04/18 02:45:44;;;;;;;2.53;1.60;;;3.90;95.70;;;4.62;90.88;98428.16;4960530;28;20684;-74
2022/04/18 02:48:13;;;;;;;4.10;1.90;;;3.70;95.80;;;4.54;91.10;98424.47;4960810;28;20504;-73
2022/04/18 02:50:42;;;;;;;1.87;1.63;;;3.70;95.80;;;4.53;91.73;98417.66;4962060;28;20938;-74
2022/04/18 02:53:14;;;;;;;2.50;1.77;;;3.80;95.70;;;4.54;91.70;98421.06;4960923;28;20467;-73
2022/04/18 02:55:44;;;;;;;2.40;1.80;;;3.80;95.80;;;4.58;91.65;98423.22;4960289;28;20517;-74
2022/04/18 02:58:13;;;;;;;2.37;1.80;;;3.80;95.80;;;4.56;91.47;98416.56;4957647;28;20498;-73
2022/04/18 03:00:43;;;;;;;1.53;1.40;;;3.80;95.80;;;4.52;91.50;98416.03;4962047;28;20482;-73
2022/04/18 03:03:14;;;;;;;4.47;2.20;;;3.80;95.80;;;4.48;91.90;98412.06;4959636;28;20467;-73
2022/04/18 03:05:44;;;;;;;5.30;2.00;;;3.70;95.90;;;4.43;91.97;98411.69;4960315;28;20463;-73
2022/04/18 03:08:17;;;;;;;2.17;1.97;;;3.60;95.90;;;4.46;91.95;98410.59;4958585;28;20497;-73
2022/04/18 03:11:06;;;;;;;2.77;1.70;;;3.60;95.90;;;4.53;92.31;98407.31;4960349;28;20895;-74
2022/04/18 03:13:37;;;;;;;1.70;1.60;;;3.60;96.20;;;4.50;91.50;98405.00;4959215;28;20473;-74
2022/04/18 03:16:07;;;;;;;2.73;1.70;;;3.60;95.80;;;4.49;91.83;98400.78;4960234;28;20495;-74
2022/04/18 03:18:38;;;;;;;2.30;1.77;;;3.70;95.70;;;4.41;92.32;98394.63;4961977;28;20485;-74
2022/04/18 03:21:07;;;;;;;2.10;1.80;;;3.60;96.20;;;4.34;92.54;98401.38;4961219;28;20473;-74
2022/04/18 03:23:38;;;;;;;4.27;1.90;;;3.60;96.00;;;4.29;92.76;98388.81;4959676;28;20466;-74
2022/04/18 03:26:09;;;;;;;2.30;1.90;;;3.50;96.00;;;4.31;93.18;98389.50;4959137;28;20489;-74
2022/04/18 03:28:38;;;;;;;2.70;2.10;;;3.50;96.20;;;4.32;93.04;98395.50;4962228;28;20965;-74
2022/04/18 03:31:07;;;;;;;3.13;1.53;;;3.50;96.10;;;4.27;93.07;98390.72;4958373;28;20601;-74
2022/04/18 03:33:36;;;;;;;3.13;2.13;;;3.50;96.00;;;4.20;93.47;98389.63;4961713;28;20495;-74
2022/04/18 03:41:45;;;;;;;3.80;1.90;;;3.40;96.20;;;4.16;93.90;98390.91;4960837;28;20475;-73
2022/04/18 03:44:17;;;;;;;3.30;1.80;;;3.40;96.00;;;4.07;94.07;98384.75;4959943;28;20473;-73
2022/04/18 03:46:51;;;;;;;2.90;1.57;;;3.30;96.10;;;4.03;94.51;98378.22;4959523;28;20486;-74
2022/04/18 03:49:20;;;;;;;4.47;1.90;;;3.20;96.50;;;4.07;94.43;98382.19;4960640;28;20471;-74
2022/04/18 03:51:50;;;;;;;1.63;1.53;;;3.30;96.30;;;4.01;94.53;98374.97;4959450;28;20476;-74
2022/04/18 03:54:26;;;;;;;3.00;2.17;;;3.40;96.00;;;3.94;95.36;98381.66;4958800;28;20470;-74
2022/04/18 03:56:56;;;;;;;2.07;1.63;;;3.20;96.50;;;3.95;95.41;98385.06;4960660;28;20523;-74
2022/04/18 03:59:26;;;;;;;4.27;1.93;;;3.10;96.60;;;3.93;95.23;98389.53;4961202;28;20507;-74
2022/04/18 04:01:56;;;;;;;1.93;1.77;;;3.10;96.60;;;3.92;95.19;98388.72;4959161;28;20972;-74
2022/04/18 04:04:26;;;;;;;5.93;2.13;;;3.30;96.50;;;3.86;95.67;98383.28;4960836;28;20523;-73
2022/04/18 04:06:56;;;;;;;4.87;1.97;;;3.10;96.40;;;3.79;96.20;98385.59;4959220;28;20527;-74
2022/04/18 04:09:26;;;;;;;4.00;2.30;;;3.10;96.50;;;3.76;97.00;98385.03;4958059;28;20496;-73
2022/04/18 04:11:57;;;;;;;4.80;1.70;;;3.00;96.90;;;3.83;96.86;98386.94;4959807;28;21050;-73
2022/04/18 04:14:26;;;;;;;2.13;1.67;;;3.00;97.00;;;3.80;96.64;98378.66;4960351;28;20502;-74
2022/04/18 04:16:58;;;;;;;2.43;1.87;;;3.00;96.80;;;3.77;96.70;98378.94;4960154;28;20556;-74
2022/04/18 04:19:27;;;;;;;1.70;1.60;;;3.00;96.90;;;3.77;96.86;98368.59;4959437;28;21482;-73
2022/04/18 04:21:57;;;;;;;4.50;2.20;;;2.90;96.70;;;3.71;97.05;98371.72;4959360;28;20469;-73
2022/04/18 04:24:29;;;;;;;3.60;1.60;;;2.90;96.90;;;3.60;97.96;98377.84;4959346;28;20470;-74
2022/04/18 04:26:59;;;;;;;11.50;2.23;;;2.80;97.20;;;3.63;98.30;98368.97;4956951;28;20879;-73
2022/04/18 04:29:29;;;;;;;3.23;1.97;;;2.80;97.40;;;3.62;98.24;98373.34;4960204;28;20473;-74
2022/04/18 04:31:59;;;;;;;3.93;1.87;;;2.80;97.10;;;3.61;98.44;98373.50;4959549;28;20472;-73
2022/04/18 04:34:51;;;;;;;3.40;2.23;;;2.70;97.40;;;3.64;98.52;98375.78;4919716;29;20898;-73
2022/04/18 04:37:55;;;;;;;3.20;1.80;;;2.80;97.20;;;3.65;98.20;98374.81;4918088;29;20470;-73
2022/04/18 04:44:11;;;;;;;3.13;1.80;;;2.80;97.30;;;3.60;98.03;98383.00;4913407;29;20521;-73
2022/04/18 04:47:14;;;;;;;7.63;2.30;;;2.80;97.10;;;3.57;99.09;98379.88;4919281;29;20561;-74
2022/04/18 04:49:50;;;;;;;2.53;1.73;;;2.60;97.40;;;3.54;99.43;98379.16;4922763;29;20885;-74
2022/04/18 04:52:28;;;;;;;2.40;1.90;;;2.60;97.60;;;3.55;98.97;98383.41;4922537;29;20486;-73
2022/04/18 04:56:02;;;;;;;8.70;2.47;;;2.70;97.40;;;3.56;99.29;98381.63;4921666;29;21210;-73
2022/04/18 04:59:50;;;;;;;10.23;2.10;;;2.60;97.70;;;3.60;99.06;98377.00;4851910;29;20470;-73
2022/04/18 05:02:50;;;;;;;2.53;2.07;;;2.70;97.60;;;3.54;99.21;98381.75;4845039;29;20952;-73
2022/04/18 05:05:24;;;;;;;1.97;1.60;;;2.60;97.70;;;3.57;99.03;98387.63;4851913;29;20472;-73
2022/04/18 05:07:55;;;;;;;2.77;1.90;;;2.70;97.60;;;3.59;98.84;98380.53;4899998;29;20497;-80
2022/04/18 05:11:04;;;;;;;7.63;2.60;;;2.80;97.30;;;3.60;99.71;98385.59;4870497;29;20458;-73
2022/04/18 05:13:55;;;;;;;3.77;2.20;;;2.70;97.50;;;3.62;99.56;98390.59;4810842;29;20481;-73
2022/04/18 05:16:28;;;;;;;2.83;2.10;;;2.80;97.30;;;3.64;99.73;98391.31;4837414;29;20512;-74
2022/04/18 05:19:38;;;;;;;2.10;1.90;;;2.70;97.60;;;3.69;99.34;98384.78;4859843;29;20593;-73
2022/04/18 05:22:53;;;;;;;2.10;1.60;;;2.80;97.50;;;3.74;99.04;98392.13;4905404;29;20905;-73
2022/04/18 05:25:55;;;;;;;3.00;2.33;;;2.90;97.30;;;3.79;99.12;98385.59;4900812;29;20514;-73
2022/04/18 05:28:50;;;;;;;4.57;2.30;;;2.90;97.50;;;3.83;98.80;98392.13;4905890;29;20525;-73
2022/04/18 05:32:12;;;;;;;4.77;2.00;;;3.00;97.50;;;3.86;99.16;98391.84;4899561;29;20499;-73
2022/04/18 05:35:36;;;;;;;4.33;2.20;;;3.00;97.80;;;3.93;100.00;98392.13;4894525;29;21092;-73
2022/04/18 05:38:45;;;;;;;2.00;1.63;;;3.00;97.90;;;3.97;99.59;98385.72;4951578;28;20595;-73
2022/04/18 05:49:17;;;;;;;1.87;1.60;;;3.20;97.50;;;4.12;99.08;98392.13;4959110;28;20862;-73
2022/04/18 05:51:47;;;;;;;3.80;2.00;;;3.20;97.60;;;4.14;99.01;98395.38;4962022;28;20523;-73
2022/04/18 05:54:18;;;;;;;2.50;1.87;;;3.30;97.60;;;4.18;98.85;98396.75;4963950;28;20474;-73
2022/04/18 05:56:48;;;;;;;2.23;1.70;;;3.30;97.70;;;4.19;99.09;98388.03;4962783;28;20460;-73
2022/04/18 05:59:18;;;;;;;6.10;2.00;;;3.30;97.50;;;4.26;99.53;98396.88;4960200;28;20473;-74
2022/04/18 06:01:49;;;;;;;3.33;1.70;;;3.30;97.90;;;4.30;99.70;98395.66;4961409;28;20539;-79
2022/04/18 06:04:20;;;;;;;8.40;3.50;;;3.30;97.90;;;4.38;100.00;98398.34;4962700;28;20486;-73
2022/04/18 06:06:50;;;;;;;4.10;1.70;;;3.40;97.90;;;4.45;99.79;98394.22;4963488;28;20504;-74
2022/04/18 06:09:21;;;;;;;1.93;1.63;;;3.50;98.00;;;4.50;99.50;98392.06;4961980;28;20867;-74
2022/04/18 06:11:51;;;;;;;1.60;1.50;;;3.50;97.60;;;4.55;98.98;98389.84;4962542;28;20490;-74
2022/04/18 06:14:20;;;;;;;4.83;2.20;;;3.60;97.40;;;4.60;98.24;98392.03;4962226;28;20977;-74
2022/04/18 06:16:50;;;;;;;2.90;2.10;;;3.70;97.30;;;4.68;97.75;98388.72;4964964;28;20522;-74
2022/04/18 06:19:20;;;;;;;2.33;1.70;;;3.70;97.40;;;4.73;97.94;98386.50;4961804;28;20503;-73
2022/04/18 06:21:49;;;;;;;5.03;2.10;;;3.80;97.50;;;4.76;97.89;98381.03;4961841;28;20513;-73
2022/04/18 06:24:18;;;;;;;2.23;1.60;;;3.80;97.70;;;4.82;98.21;98380.50;4963691;28;20476;-73
2022/04/18 06:26:49;;;;;;;3.20;1.87;;;3.90;97.60;;;4.88;97.63;98379.91;4963500;28;20528;-73
2022/04/18 06:29:20;;;;;;;3.83;3.03;;;3.90;97.40;;;4.94;97.69;98380.16;4959452;28;20491;-73
2022/04/18 06:31:53;;;;;;;20.47;7.70;;;4.00;97.50;;;4.99;97.30;98379.75;4960408;28;20472;-73
2022/04/18 06:34:25;;;;;;;5.60;2.47;;;4.00;97.40;;;5.04;97.32;98385.28;4958957;28;20479;-74
2022/04/18 06:36:54;;;;;;;4.33;1.90;;;4.10;97.20;;;5.10;96.89;98382.16;4962471;28;20472;-74
2022/04/18 06:39:23;;;;;;;2.93;1.90;;;4.10;97.30;;;5.17;96.86;98374.59;4959549;28;20500;-74
2022/04/18 06:41:55;;;;;;;2.37;2.17;;;4.20;97.40;;;5.21;96.91;98375.94;4961388;28;20468;-74
2022/04/18 06:44:25;;;;;;;3.43;2.03;;;4.30;97.50;;;5.26;96.68;98373.72;4961397;28;20457;-74
2022/04/18 06:46:57;;;;;;;4.67;2.20;;;4.30;97.30;;;5.30;96.44;98378.50;4959655;28;20463;-73
2022/04/18 06:49:27;;;;;;;4.47;1.93;;;4.40;97.00;;;5.35;95.94;98372.84;4960457;28;20515;-74
2022/04/18 06:51:58;;;;;;;3.20;2.20;;;4.50;96.90;;;5.41;95.52;98369.69;4959667;28;20465;-74
2022/04/18 06:54:27;;;;;;;6.33;2.33;;;4.50;96.80;;;5.47;94.95;98371.69;4958747;28;20463;-74
2022/04/18 06:56:58;;;;;;;3.87;2.10;;;4.50;96.90;;;5.52;94.65;98367.69;4959710;28;20925;-74
2022/04/18 06:59:30;;;;;;;2.80;2.00;;;4.60;97.20;;;5.59;95.63;98360.13;4961031;28;20490;-73
2022/04/18 07:02:01;;;;;;;70.60;27.83;;;4.70;97.30;;;5.69;95.45;98373.03;4959639;28;20552;-73
2022/04/18 07:04:32;;;;;;;5.13;3.40;;;4.70;97.30;;;5.76;94.92;98371.50;4960037;28;20471;-74
2022/04/18 07:07:08;;;;;;;2.33;2.10;;;4.90;97.00;;;5.82;94.93;98368.28;4960965;28;20551;-74
2022/04/18 07:09:39;;;;;;;1.77;1.63;;;4.90;96.90;;;5.88;94.30;98368.53;4961986;28;20844;-73
2022/04/18 07:12:11;;;;;;;3.87;2.27;;;5.00;97.00;;;5.97;94.20;98369.44;4957951;28;20465;-74
2022/04/18 07:14:41;;;;;;;3.80;1.77;;;5.10;96.90;;;6.04;93.96;98366.06;4961737;28;20956;-74
2022/04/18 07:17:11;;;;;;;3.33;2.17;;;5.20;96.70;;;6.12;93.95;98367.91;4961654;28;20537;-74
2022/04/18 07:19:41;;;;;;;6.50;2.33;;;5.30;96.80;;;6.19;93.04;98360.31;4960603;28;20484;-74
2022/04/18 07:22:11;;;;;;;4.10;2.23;;;5.40;96.60;;;6.26;93.37;98366.53;4959323;28;20461;-74
2022/04/18 07:24:40;;;;;;;3.00;2.00;;;5.40;96.60;;;6.33;92.48;98368.38;4961180;28;20479;-74
2022/04/18 07:27:12;;;;;;;3.30;2.17;;;5.50;96.30;;;6.40;92.49;98366.00;4961213;28;20458;-74
2022/04/18 07:29:42;;;;;;;2.27;1.93;;;5.60;96.30;;;6.49;92.12;98376.28;4957716;28;20503;-74
2022/04/18 07:32:11;;;;;;;3.43;2.50;;;5.70;96.10;;;6.56;91.69;98366.91;4960828;28;20478;-74
2022/04/18 07:34:41;;;;;;;5.27;2.20;;;5.80;96.10;;;6.64;91.27;98363.53;4960263;28;20999;-74
2022/04/18 07:37:12;;;;;;;2.93;2.10;;;5.90;95.90;;;6.75;90.85;98359.84;4961156;28;20932;-74
2022/04/18 07:39:41;;;;;;;3.27;2.00;;;6.00;95.80;;;6.84;89.88;98364.13;4964150;28;20460;-74
2022/04/18 07:42:12;;;;;;;4.10;1.80;;;6.20;95.70;;;6.93;88.87;98366.63;4957493;28;20476;-74
2022/04/18 07:44:42;;;;;;;7.80;2.30;;;6.20;95.10;;;7.01;88.50;98371.84;4958778;28;21068;-74
2022/04/18 07:47:11;;;;;;;4.07;2.00;;;6.30;95.40;;;7.10;88.17;98370.09;4961988;28;20463;-74
2022/04/18 07:49:42;;;;;;;5.50;2.37;;;6.30;95.20;;;7.18;86.61;98367.53;4961901;28;20502;-74
2022/04/18 07:52:12;;;;;;;3.40;2.17;;;6.50;94.80;;;7.29;85.82;98359.41;4958784;28;20480;-74
2022/04/18 07:54:44;;;;;;;2.80;2.00;;;6.60;94.10;;;7.40;84.22;98366.94;4958818;28;20461;-74
2022/04/18 07:57:16;;;;;;;7.10;2.00;;;6.70;94.00;;;7.47;83.18;98357.50;4958641;28;20500;-73
2022/04/18 07:59:47;;;;;;;3.13;2.27;;;6.80;93.90;;;7.56;81.86;98351.38;4958887;28;20486;-74
2022/04/18 08:02:16;;;;;;;22.70;9.30;;;6.90;93.50;;;7.67;81.33;98350.22;4956363;28;20886;-74
2022/04/18 08:04:46;;;;;;;6.83;3.87;;;7.00;93.70;;;7.75;81.29;98354.63;4957278;28;20524;-74
2022/04/18 08:07:15;;;;;;;5.13;2.30;;;7.10;93.80;;;7.84;78.55;98353.66;4958842;28;20468;-74
2022/04/18 08:09:46;;;;;;;4.23;2.50;;;7.20;92.70;;;7.93;77.72;98356.09;4958114;28;20492;-74
2022/04/18 08:12:17;;;;;;;4.33;2.37;;;7.30;92.50;;;8.04;75.45;98349.75;4956159;28;20477;-74
2022/04/18 08:14:48;;;;;;;5.90;2.53;;;7.30;91.80;;;8.13;74.73;98353.97;4957026;28;20462;-74
2022/04/18 08:17:18;;;;;;;2.80;2.50;;;7.40;92.40;;;8.19;75.24;98363.72;4958716;28;20474;-74
2022/04/18 08:19:48;;;;;;;5.00;2.50;;;7.50;92.50;;;8.27;75.49;98362.91;4958467;28;20511;-74
2022/04/18 08:22:18;;;;;;;4.23;2.13;;;7.60;92.60;;;8.36;75.83;98360.19;4959676;28;20472;-74
2022/04/18 08:24:48;;;;;;;3.47;3.10;;;7.60;92.70;;;8.41;75.21;98355.28;4964633;28;20481;-74
2022/04/18 08:27:19;;;;;;;4.40;2.90;;;7.80;92.70;;;8.50;73.86;98351.66;4963495;28;20461;-74
2022/04/18 08:29:48;;;;;;;3.83;2.07;;;7.90;92.30;;;8.64;72.41;98359.81;4962959;28;20531;-74
2022/04/18 08:32:18;;;;;;;3.60;2.03;;;8.10;91.90;;;8.72;72.12;98357.97;4962094;28;20511;-74
2022/04/18 08:34:49;;;;;;;6.93;2.67;;;8.10;91.80;;;8.80;71.72;98357.16;4962700;28;20968;-74
2022/04/18 08:37:20;;;;;;;2.80;2.27;;;8.20;91.70;;;8.90;70.55;98357.75;4962332;28;21253;-74
2022/04/18 08:39:51;;;;;;;3.03;2.20;;;8.20;91.10;;;8.98;68.38;98347.31;4958708;28;20468;-74
2022/04/18 08:42:25;;;;;;;7.10;2.43;;;8.40;90.90;;;9.04;68.78;98352.66;4960741;28;20527;-74
2022/04/18 08:44:55;;;;;;;6.03;2.40;;;8.50;91.20;;;9.15;67.25;98348.03;4966731;28;20520;-74
2022/04/18 08:53:02;;;;;;;5.10;2.30;;;8.60;90.60;;;9.39;66.38;98347.91;4962926;28;20524;-74
2022/04/18 08:55:35;;;;;;;6.50;2.47;;;8.70;90.40;;;9.47;65.24;98345.28;4973216;28;20548;-74
2022/04/18 08:58:07;;;;;;;124.33;54.20;;;8.90;90.10;;;9.55;65.34;98346.00;4962999;28;20850;-73
2022/04/18 09:00:40;;;;;;;6.77;4.57;;;8.90;90.40;;;9.63;64.72;98350.38;4963451;28;20515;-74
2022/04/18 09:03:14;;;;;;;3.90;2.83;;;8.90;89.90;;;9.71;64.13;98341.69;4961195;28;20536;-74
2022/04/18 09:05:44;;;;;;;9.50;3.57;;;9.00;89.30;;;9.76;62.31;98348.00;4963596;28;20460;-73
2022/04/18 09:08:15;;;;;;;5.73;3.20;;;9.10;88.10;;;9.80;62.47;98340.63;4961247;28;20464;-73
2022/04/18 09:10:50;;;;;;;2.30;1.90;;;9.10;88.60;;;9.86;62.83;98334.69;4963306;28;20504;-73
2022/04/18 09:13:25;;;;;;;4.80;2.63;;;9.20;89.70;;;9.96;58.10;98340.53;4963971;28;20464;-73
2022/04/18 09:15:56;;;;;;;4.17;2.50;;;9.40;85.10;;;10.06;57.50;98338.47;4961759;28;21239;-73
2022/04/18 09:18:27;;;;;;;6.03;2.40;;;9.60;85.20;;;10.18;56.30;98334.47;4960024;28;21022;-73
2022/04/18 09:20:59;;;;;;;6.43;2.50;;;9.70;83.90;;;10.28;55.66;98334.19;4961664;28;20461;-74
2022/04/18 09:23:31;;;;;;;3.70;2.40;;;9.80;83.60;;;10.38;53.74;98334.75;4962497;28;20863;-73
2022/04/18 09:26:04;;;;;;;4.67;2.37;;;9.90;81.50;;;10.44;54.20;98328.84;4963789;28;20476;-73
2022/04/18 09:28:40;;;;;;;4.20;2.50;;;9.90;83.00;;;10.50;53.23;98320.28;4961377;28;20461;-74
2022/04/18 09:31:12;;;;;;;9.10;5.40;;;10.00;80.50;;;10.57;53.56;98324.59;4960239;28;20527;-75
2022/04/18 09:33:46;;;;;;;4.07;2.30;;;10.00;80.90;;;10.67;53.16;98315.66;4957994;28;20461;-73
2022/04/18 09:36:21;;;;;;;5.20;2.80;;;10.10;80.80;;;10.77;52.84;98321.44;4962664;28;20488;-73
2022/04/18 09:38:54;;;;;;;3.40;2.20;;;10.20;80.40;;;10.84;52.28;98309.25;4962673;28;20547;-73
2022/04/18 09:41:29;;;;;;;2.50;1.87;;;10.30;79.60;;;10.91;52.26;98310.16;4959952;28;20563;-73
2022/04/18 09:44:00;;;;;;;6.53;2.23;;;10.40;79.90;;;10.99;51.76;98308.25;4960982;28;20505;-73
2022/04/18 09:46:37;;;;;;;3.73;2.17;;;10.50;79.80;;;11.05;52.48;98296.22;4962728;28;20970;-73
2022/04/18 09:49:08;;;;;;;4.67;2.97;;;10.50;80.30;;;11.13;52.58;98304.00;4963527;28;20471;-73
2022/04/18 09:51:41;;;;;;;4.17;2.67;;;10.60;80.50;;;11.29;51.57;98298.53;4966701;28;20497;-74
2022/04/18 09:54:12;;;;;;;2.90;2.60;;;10.80;80.00;;;11.41;51.09;98291.81;4967278;28;20445;-74
2022/04/18 09:56:51;;;;;;;6.10;2.67;;;10.90;79.30;;;11.52;50.99;98298.38;4966577;28;20460;-74
2022/04/18 09:59:24;;;;;;;8.77;2.73;;;11.00;79.50;;;11.68;49.66;98297.28;4964695;28;20544;-73
2022/04/18 10:01:55;;;;;;;8.00;2.40;;;11.10;77.90;;;11.70;49.09;98295.31;4963554;28;20480;-73
2022/04/18 10:04:26;;;;;;;4.40;2.07;;;11.10;77.10;;;11.76;48.65;98292.78;4961283;28;20453;-74
2022/04/18 10:07:01;;;;;;;5.10;2.20;;;11.20;77.10;;;11.84;48.28;98278.72;4962294;28;20564;-74
2022/04/18 10:09:34;;;;;;;2.60;2.20;;;11.30;76.80;;;11.91;47.88;98277.78;4943960;28;20460;-73
2022/04/18 10:12:05;;;;;;;3.33;2.53;;;11.40;76.50;;;12.03;47.58;98281.53;4963368;28;20492;-73
2022/04/18 10:14:37;;;;;;;4.40;2.70;;;11.50;76.40;;;12.11;47.94;98277.94;4958075;28;20829;-73
2022/04/18 10:17:09;;;;;;;6.17;2.53;;;11.60;76.60;;;12.25;47.94;98278.84;4961408;28;20461;-73
2022/04/18 10:19:58;;;;;;;7.33;2.67;;;11.70;77.10;;;12.31;47.25;98273.66;4960434;28;20496;-74
2022/04/18 10:23:07;;;;;;;4.13;2.60;;;11.80;76.40;;;12.35;47.57;98269.63;4959987;28;20961;-74
2022/04/18 10:26:36;;;;;;;3.73;2.17;;;11.80;76.10;;;12.45;45.61;98264.84;4960370;28;20487;-74
2022/04/18 10:29:14;;;;;;;6.40;2.30;;;12.00;74.80;;;12.54;46.88;98266.31;4964517;28;20468;-74
2022/04/18 10:32:04;;;;;;;4.30;2.37;;;12.10;76.10;;;12.62;46.82;98262.72;4960983;28;20762;-73
2022/04/18 10:34:36;;;;;;;6.83;2.90;;;12.10;75.60;;;12.68;46.15;98253.25;4959627;28;20476;-74
2022/04/18 10:37:10;;;;;;;2.67;2.00;;;12.10;75.10;;;12.68;47.01;98253.25;4963158;28;20600;-74
2022/04/18 10:39:42;;;;;;;6.00;2.73;;;12.20;76.70;;;12.71;47.47;98247.59;4959598;28;20473;-74
2022/04/18 10:42:23;;;;;;;6.03;2.47;;;12.20;77.10;;;12.72;47.62;98241.38;4960603;28;20518;-74
2022/04/18 10:45:06;;;;;;;11.60;5.70;;;12.20;77.20;;;12.82;47.51;98244.44;4960389;28;20560;-74
2022/04/18 10:48:17;;;;;;;6.20;2.73;;;12.30;76.90;;;12.87;47.96;98237.59;4961035;28;20508;-74
2022/04/18 10:50:50;;;;;;;5.43;2.70;;;12.40;77.60;;;12.91;47.44;98245.91;4956332;28;21556;-74
2022/04/18 10:53:36;;;;;;;3.63;2.60;;;12.40;76.80;;;12.90;46.78;98228.53;4961531;28;20954;-73
2022/04/18 10:56:13;;;;;;;4.23;2.70;;;12.40;76.10;;;12.93;47.89;98230.75;4962285;28;20536;-74
2022/04/18 10:58:45;;;;;;;3.37;2.33;;;12.50;77.50;;;13.03;47.34;98225.94;4962042;28;20464;-74
2022/04/18 11:01:19;;;;;;;4.23;2.57;;;12.50;76.80;;;13.08;46.52;98228.78;4962550;28;20535;-74
2022/04/18 11:03:59;;;;;;;5.60;2.60;;;12.50;76.10;;;13.14;46.64;98225.38;4962855;28;20548;-73
2022/04/18 11:06:52;;;;;;;3.30;2.60;;;12.50;76.20;;;13.17;46.01;98224.16;4960437;28;20560;-74
2022/04/18 11:09:24;;;;;;;5.00;2.73;;;12.70;75.50;;;13.16;45.84;98218.09;4960745;28;20460;-74
2022/04/18 11:12:05;;;;;;;4.90;2.50;;;12.70;75.20;;;13.22;47.08;98219.16;4958827;28;21079;-74
2022/04/18 11:14:52;;;;;;;2.77;2.40;;;12.60;76.70;;;13.27;46.32;98221.97;4958978;28;20468;-74
2022/04/18 11:17:34;;;;;;;4.23;2.50;;;12.70;76.20;;;13.28;46.80;98227.03;4961235;28;20460;-75
2022/04/18 11:20:28;;;;;;;6.20;3.47;;;12.70;76.90;;;13.36;47.21;98221.56;4961018;28;20489;-73
2022/04/18 11:23:18;;;;;;;3.77;2.53;;;12.80;77.60;;;13.40;46.92;98217.53;4963550;28;20441;-74
2022/04/18 11:25:56;;;;;;;2.90;2.40;;;12.90;77.10;;;13.47;47.32;98213.09;4961078;28;20464;-74
2022/04/18 11:28:33;;;;;;;4.37;2.47;;;12.90;77.70;;;13.47;46.32;98210.47;4959350;28;20444;-74
2022/04/18 11:31:08;;;;;;;3.87;2.50;;;13.00;76.20;;;13.43;46.47;98204.00;4961327;28;20477;-74